sensor_id;sensor_type;location;lat;lon;timestamp;temperature;humidity
49765;DHT22;35657;51.204;-4.130;2023-03-04T00:01:33;6.00;99.90
49765;DHT22;35657;51.204;-4.130;2023-03-04T00:03:58;5.90;99.90
49765;DHT22;35657;51.204;-4.130;2023-03-04T00:06:25;5.90;99.90
49765;DHT22;35657;51.204;-4.130;2023-03-04T00:08:51;5.70;99.90
49765;DHT22;35657;51.204;-4.130;2023-03-04T00:11:16;5.80;99.90
49765;DHT22;35657;51.204;-4.130;2023-03-04T00:13:42;5.90;99.90
49765;DHT22;35657;51.204;-4.130;2023-03-04T00:16:08;5.90;99.90
49765;DHT22;35657;51.204;-4.130;2023-03-04T00:18:33;6.00;99.90
49765;DHT22;35657;51.204;-4.130;2023-03-04T00:20:59;6.10;99.90
49765;DHT22;35657;51.204;-4.130;2023-03-04T00:23:25;6.00;99.90
49765;DHT22;35657;51.204;-4.130;2023-03-04T00:25:50;6.10;99.90
49765;DHT22;35657;51.204;-4.130;2023-03-04T00:28:16;6.10;99.90
49765;DHT22;35657;51.204;-4.130;2023-03-04T00:30:42;6.00;99.90
49765;DHT22;35657;51.204;-4.130;2023-03-04T00:33:07;5.90;99.90
49765;DHT22;35657;51.204;-4.130;2023-03-04T00:35:33;6.20;99.90
49765;DHT22;35657;51.204;-4.130;2023-03-04T00:37:59;6.20;99.90
49765;DHT22;35657;51.204;-4.130;2023-03-04T00:40:24;6.30;99.90
49765;DHT22;35657;51.204;-4.130;2023-03-04T00:42:50;6.30;99.90
49765;DHT22;35657;51.204;-4.130;2023-03-04T00:45:16;6.20;99.90
49765;DHT22;35657;51.204;-4.130;2023-03-04T00:47:41;6.20;99.90
49765;DHT22;35657;51.204;-4.130;2023-03-04T00:50:08;6.20;99.90
49765;DHT22;35657;51.204;-4.130;2023-03-04T00:52:34;6.10;99.90
49765;DHT22;35657;51.204;-4.130;2023-03-04T00:54:59;6.10;99.90
49765;DHT22;35657;51.204;-4.130;2023-03-04T00:57:25;6.10;99.90
49765;DHT22;35657;51.204;-4.130;2023-03-04T00:59:51;6.10;99.90
49765;DHT22;35657;51.204;-4.130;2023-03-04T01:02:17;6.10;99.90
49765;DHT22;35657;51.204;-4.130;2023-03-04T01:04:42;6.00;99.90
49765;DHT22;35657;51.204;-4.130;2023-03-04T01:07:08;6.10;99.90
49765;DHT22;35657;51.204;-4.130;2023-03-04T01:09:34;6.20;99.90
49765;DHT22;35657;51.204;-4.130;2023-03-04T01:12:00;6.10;99.90
49765;DHT22;35657;51.204;-4.130;2023-03-04T01:14:26;6.10;99.90
49765;DHT22;35657;51.204;-4.130;2023-03-04T01:16:52;6.20;99.90
49765;DHT22;35657;51.204;-4.130;2023-03-04T01:19:17;6.10;99.90
49765;DHT22;35657;51.204;-4.130;2023-03-04T01:21:43;6.10;99.90
49765;DHT22;35657;51.204;-4.130;2023-03-04T01:24:09;6.10;99.90
49765;DHT22;35657;51.204;-4.130;2023-03-04T01:26:34;6.00;99.90
49765;DHT22;35657;51.204;-4.130;2023-03-04T01:29:01;6.10;99.90
49765;DHT22;35657;51.204;-4.130;2023-03-04T01:31:26;6.10;99.90
49765;DHT22;35657;51.204;-4.130;2023-03-04T01:33:52;6.10;99.90
49765;DHT22;35657;51.204;-4.130;2023-03-04T01:36:18;6.10;99.90
49765;DHT22;35657;51.204;-4.130;2023-03-04T01:38:43;6.10;99.90
49765;DHT22;35657;51.204;-4.130;2023-03-04T01:41:11;6.10;99.90
49765;DHT22;35657;51.204;-4.130;2023-03-04T01:43:37;6.10;99.90
49765;DHT22;35657;51.204;-4.130;2023-03-04T01:46:04;6.20;99.90
49765;DHT22;35657;51.204;-4.130;2023-03-04T01:48:36;6.30;99.90
49765;DHT22;35657;51.204;-4.130;2023-03-04T01:51:10;6.30;99.90
49765;DHT22;35657;51.204;-4.130;2023-03-04T01:53:36;6.40;99.90
49765;DHT22;35657;51.204;-4.130;2023-03-04T01:58:43;6.40;99.90
49765;DHT22;35657;51.204;-4.130;2023-03-04T02:01:12;6.40;99.90
49765;DHT22;35657;51.204;-4.130;2023-03-04T02:03:38;6.30;99.90
49765;DHT22;35657;51.204;-4.130;2023-03-04T02:06:05;6.30;99.90
49765;DHT22;35657;51.204;-4.130;2023-03-04T02:08:31;6.20;99.90
49765;DHT22;35657;51.204;-4.130;2023-03-04T02:10:57;6.30;99.90
49765;DHT22;35657;51.204;-4.130;2023-03-04T02:13:22;6.30;99.90
49765;DHT22;35657;51.204;-4.130;2023-03-04T02:15:48;6.20;99.90
49765;DHT22;35657;51.204;-4.130;2023-03-04T02:18:19;6.10;99.90
49765;DHT22;35657;51.204;-4.130;2023-03-04T02:26:14;6.10;99.90
49765;DHT22;35657;51.204;-4.130;2023-03-04T02:28:40;6.20;99.90
49765;DHT22;35657;51.204;-4.130;2023-03-04T02:33:47;6.20;99.90
49765;DHT22;35657;51.204;-4.130;2023-03-04T02:36:13;6.20;99.90
49765;DHT22;35657;51.204;-4.130;2023-03-04T02:38:38;6.20;99.90
49765;DHT22;35657;51.204;-4.130;2023-03-04T02:41:04;6.20;99.90
49765;DHT22;35657;51.204;-4.130;2023-03-04T02:43:31;6.20;99.90
49765;DHT22;35657;51.204;-4.130;2023-03-04T02:45:56;6.20;99.90
49765;DHT22;35657;51.204;-4.130;2023-03-04T02:48:22;6.20;99.90
49765;DHT22;35657;51.204;-4.130;2023-03-04T02:50:52;6.20;99.90
49765;DHT22;35657;51.204;-4.130;2023-03-04T02:53:19;6.20;99.90
49765;DHT22;35657;51.204;-4.130;2023-03-04T02:55:49;6.20;99.90
49765;DHT22;35657;51.204;-4.130;2023-03-04T02:58:16;6.20;99.90
49765;DHT22;35657;51.204;-4.130;2023-03-04T03:00:42;6.20;99.90
49765;DHT22;35657;51.204;-4.130;2023-03-04T03:03:08;6.20;99.90
49765;DHT22;35657;51.204;-4.130;2023-03-04T03:05:34;6.30;99.90
49765;DHT22;35657;51.204;-4.130;2023-03-04T03:08:00;6.30;99.90
49765;DHT22;35657;51.204;-4.130;2023-03-04T03:10:26;6.40;99.90
49765;DHT22;35657;51.204;-4.130;2023-03-04T03:12:52;6.40;99.90
49765;DHT22;35657;51.204;-4.130;2023-03-04T03:15:18;6.40;99.90
49765;DHT22;35657;51.204;-4.130;2023-03-04T03:17:44;6.40;99.90
49765;DHT22;35657;51.204;-4.130;2023-03-04T03:20:11;6.40;99.90
49765;DHT22;35657;51.204;-4.130;2023-03-04T03:22:37;6.30;99.90
49765;DHT22;35657;51.204;-4.130;2023-03-04T03:25:03;6.30;99.90
49765;DHT22;35657;51.204;-4.130;2023-03-04T03:27:29;6.20;99.90
49765;DHT22;35657;51.204;-4.130;2023-03-04T03:29:55;6.10;99.90
49765;DHT22;35657;51.204;-4.130;2023-03-04T03:32:21;6.20;99.90
49765;DHT22;35657;51.204;-4.130;2023-03-04T03:34:47;6.20;99.90
49765;DHT22;35657;51.204;-4.130;2023-03-04T03:37:12;6.20;99.90
49765;DHT22;35657;51.204;-4.130;2023-03-04T03:39:38;6.20;99.90
49765;DHT22;35657;51.204;-4.130;2023-03-04T03:42:04;6.20;99.90
49765;DHT22;35657;51.204;-4.130;2023-03-04T03:44:30;6.20;99.90
49765;DHT22;35657;51.204;-4.130;2023-03-04T03:46:56;6.20;99.90
49765;DHT22;35657;51.204;-4.130;2023-03-04T03:49:22;6.20;99.90
49765;DHT22;35657;51.204;-4.130;2023-03-04T03:51:48;6.20;99.90
49765;DHT22;35657;51.204;-4.130;2023-03-04T03:54:13;6.20;99.90
49765;DHT22;35657;51.204;-4.130;2023-03-04T03:56:39;6.20;99.90
49765;DHT22;35657;51.204;-4.130;2023-03-04T03:59:05;6.20;99.90
49765;DHT22;35657;51.204;-4.130;2023-03-04T04:01:31;6.20;99.90
49765;DHT22;35657;51.204;-4.130;2023-03-04T04:03:58;6.20;99.90
49765;DHT22;35657;51.204;-4.130;2023-03-04T04:06:24;6.20;99.90
49765;DHT22;35657;51.204;-4.130;2023-03-04T04:08:50;6.20;99.90
49765;DHT22;35657;51.204;-4.130;2023-03-04T04:11:16;6.10;99.90
49765;DHT22;35657;51.204;-4.130;2023-03-04T04:13:42;6.00;99.90
49765;DHT22;35657;51.204;-4.130;2023-03-04T04:16:09;6.10;99.90
49765;DHT22;35657;51.204;-4.130;2023-03-04T04:18:35;6.10;99.90
49765;DHT22;35657;51.204;-4.130;2023-03-04T04:21:01;6.10;99.90
49765;DHT22;35657;51.204;-4.130;2023-03-04T04:23:27;6.10;99.90
49765;DHT22;35657;51.204;-4.130;2023-03-04T04:25:56;6.10;99.90
49765;DHT22;35657;51.204;-4.130;2023-03-04T04:28:23;6.20;99.90
49765;DHT22;35657;51.204;-4.130;2023-03-04T04:30:48;6.30;99.90
49765;DHT22;35657;51.204;-4.130;2023-03-04T04:33:14;6.30;99.90
49765;DHT22;35657;51.204;-4.130;2023-03-04T04:35:40;6.40;99.90
49765;DHT22;35657;51.204;-4.130;2023-03-04T04:38:07;6.40;99.90
49765;DHT22;35657;51.204;-4.130;2023-03-04T04:40:33;6.40;99.90
49765;DHT22;35657;51.204;-4.130;2023-03-04T04:42:59;6.40;99.90
49765;DHT22;35657;51.204;-4.130;2023-03-04T04:45:24;6.30;99.90
49765;DHT22;35657;51.204;-4.130;2023-03-04T04:47:51;6.20;99.90
49765;DHT22;35657;51.204;-4.130;2023-03-04T04:50:17;6.20;99.90
49765;DHT22;35657;51.204;-4.130;2023-03-04T04:52:43;6.20;99.90
49765;DHT22;35657;51.204;-4.130;2023-03-04T04:55:09;6.20;99.90
49765;DHT22;35657;51.204;-4.130;2023-03-04T04:57:35;6.20;99.90
49765;DHT22;35657;51.204;-4.130;2023-03-04T05:00:01;6.10;99.90
49765;DHT22;35657;51.204;-4.130;2023-03-04T05:02:27;6.10;99.90
49765;DHT22;35657;51.204;-4.130;2023-03-04T05:04:52;6.20;99.90
49765;DHT22;35657;51.204;-4.130;2023-03-04T05:07:18;6.20;99.90
49765;DHT22;35657;51.204;-4.130;2023-03-04T05:09:44;6.10;99.90
49765;DHT22;35657;51.204;-4.130;2023-03-04T05:12:10;6.10;99.90
49765;DHT22;35657;51.204;-4.130;2023-03-04T05:14:36;6.10;99.90
49765;DHT22;35657;51.204;-4.130;2023-03-04T05:17:02;6.10;99.90
49765;DHT22;35657;51.204;-4.130;2023-03-04T05:19:28;6.10;99.90
49765;DHT22;35657;51.204;-4.130;2023-03-04T05:21:54;6.10;99.90
49765;DHT22;35657;51.204;-4.130;2023-03-04T05:24:20;5.90;99.90
49765;DHT22;35657;51.204;-4.130;2023-03-04T05:26:46;5.90;99.90
49765;DHT22;35657;51.204;-4.130;2023-03-04T05:29:12;5.90;99.90
49765;DHT22;35657;51.204;-4.130;2023-03-04T05:31:37;5.90;99.90
49765;DHT22;35657;51.204;-4.130;2023-03-04T05:34:03;6.00;99.90
49765;DHT22;35657;51.204;-4.130;2023-03-04T05:36:29;6.00;99.90
49765;DHT22;35657;51.204;-4.130;2023-03-04T05:38:55;6.00;99.90
49765;DHT22;35657;51.204;-4.130;2023-03-04T05:41:20;6.00;99.90
49765;DHT22;35657;51.204;-4.130;2023-03-04T05:43:48;6.10;99.90
49765;DHT22;35657;51.204;-4.130;2023-03-04T05:46:15;6.20;99.90
49765;DHT22;35657;51.204;-4.130;2023-03-04T05:48:42;6.20;99.90
49765;DHT22;35657;51.204;-4.130;2023-03-04T05:51:08;6.10;99.90
49765;DHT22;35657;51.204;-4.130;2023-03-04T05:53:34;6.20;99.90
49765;DHT22;35657;51.204;-4.130;2023-03-04T05:56:13;6.40;99.90
49765;DHT22;35657;51.204;-4.130;2023-03-04T05:58:39;6.40;99.90
49765;DHT22;35657;51.204;-4.130;2023-03-04T06:01:04;6.30;99.90
49765;DHT22;35657;51.204;-4.130;2023-03-04T06:03:31;6.00;99.90
49765;DHT22;35657;51.204;-4.130;2023-03-04T06:05:56;5.90;99.90
49765;DHT22;35657;51.204;-4.130;2023-03-04T06:08:22;5.90;99.90
49765;DHT22;35657;51.204;-4.130;2023-03-04T06:10:52;5.90;99.90
49765;DHT22;35657;51.204;-4.130;2023-03-04T06:13:18;5.90;99.90
49765;DHT22;35657;51.204;-4.130;2023-03-04T06:15:43;5.90;99.90
49765;DHT22;35657;51.204;-4.130;2023-03-04T06:18:09;5.90;99.90
49765;DHT22;35657;51.204;-4.130;2023-03-04T06:20:35;5.90;99.90
49765;DHT22;35657;51.204;-4.130;2023-03-04T06:23:02;5.90;99.90
49765;DHT22;35657;51.204;-4.130;2023-03-04T06:25:28;5.90;99.90
49765;DHT22;35657;51.204;-4.130;2023-03-04T06:27:53;5.90;99.90
49765;DHT22;35657;51.204;-4.130;2023-03-04T06:30:19;5.90;99.90
49765;DHT22;35657;51.204;-4.130;2023-03-04T06:32:45;5.90;99.90
49765;DHT22;35657;51.204;-4.130;2023-03-04T06:35:13;5.90;99.90
49765;DHT22;35657;51.204;-4.130;2023-03-04T06:37:39;5.90;99.90
49765;DHT22;35657;51.204;-4.130;2023-03-04T06:40:06;5.90;99.90
49765;DHT22;35657;51.204;-4.130;2023-03-04T06:42:35;5.90;99.90
49765;DHT22;35657;51.204;-4.130;2023-03-04T06:45:02;5.80;99.90
49765;DHT22;35657;51.204;-4.130;2023-03-04T06:47:28;5.90;99.90
49765;DHT22;35657;51.204;-4.130;2023-03-04T06:49:54;5.90;99.90
49765;DHT22;35657;51.204;-4.130;2023-03-04T06:52:20;5.80;99.90
49765;DHT22;35657;51.204;-4.130;2023-03-04T06:54:45;5.80;99.90
49765;DHT22;35657;51.204;-4.130;2023-03-04T06:57:11;5.80;99.90
49765;DHT22;35657;51.204;-4.130;2023-03-04T06:59:38;5.90;99.90
49765;DHT22;35657;51.204;-4.130;2023-03-04T07:02:05;5.80;99.90
49765;DHT22;35657;51.204;-4.130;2023-03-04T07:04:31;5.80;99.90
49765;DHT22;35657;51.204;-4.130;2023-03-04T07:06:57;5.90;99.90
49765;DHT22;35657;51.204;-4.130;2023-03-04T07:09:23;5.90;99.90
49765;DHT22;35657;51.204;-4.130;2023-03-04T07:11:49;5.90;99.90
49765;DHT22;35657;51.204;-4.130;2023-03-04T07:14:14;5.90;99.90
49765;DHT22;35657;51.204;-4.130;2023-03-04T07:16:40;5.90;99.90
49765;DHT22;35657;51.204;-4.130;2023-03-04T07:19:06;5.90;99.90
49765;DHT22;35657;51.204;-4.130;2023-03-04T07:21:32;5.80;99.90
49765;DHT22;35657;51.204;-4.130;2023-03-04T07:23:57;5.80;99.90
49765;DHT22;35657;51.204;-4.130;2023-03-04T07:26:23;5.80;99.90
49765;DHT22;35657;51.204;-4.130;2023-03-04T07:28:49;5.80;99.90
49765;DHT22;35657;51.204;-4.130;2023-03-04T07:31:28;5.80;99.90
49765;DHT22;35657;51.204;-4.130;2023-03-04T07:34:13;5.80;99.90
49765;DHT22;35657;51.204;-4.130;2023-03-04T07:36:39;5.80;99.90
49765;DHT22;35657;51.204;-4.130;2023-03-04T07:39:06;5.80;99.90
49765;DHT22;35657;51.204;-4.130;2023-03-04T07:41:32;5.80;99.90
49765;DHT22;35657;51.204;-4.130;2023-03-04T07:44:01;5.80;99.90
49765;DHT22;35657;51.204;-4.130;2023-03-04T07:46:27;5.70;99.90
49765;DHT22;35657;51.204;-4.130;2023-03-04T07:48:56;5.70;99.90
49765;DHT22;35657;51.204;-4.130;2023-03-04T07:51:23;5.70;99.90
49765;DHT22;35657;51.204;-4.130;2023-03-04T07:53:56;5.80;99.90
49765;DHT22;35657;51.204;-4.130;2023-03-04T07:56:25;5.80;99.90
49765;DHT22;35657;51.204;-4.130;2023-03-04T07:58:50;5.90;99.90
49765;DHT22;35657;51.204;-4.130;2023-03-04T08:01:24;5.90;99.90
49765;DHT22;35657;51.204;-4.130;2023-03-04T08:03:50;5.80;99.90
49765;DHT22;35657;51.204;-4.130;2023-03-04T08:06:17;5.80;99.90
49765;DHT22;35657;51.204;-4.130;2023-03-04T08:08:44;5.80;99.90
49765;DHT22;35657;51.204;-4.130;2023-03-04T08:11:16;5.80;99.90
49765;DHT22;35657;51.204;-4.130;2023-03-04T08:13:42;5.90;99.90
49765;DHT22;35657;51.204;-4.130;2023-03-04T08:16:11;5.90;99.90
49765;DHT22;35657;51.204;-4.130;2023-03-04T08:18:37;5.80;99.90
49765;DHT22;35657;51.204;-4.130;2023-03-04T08:21:08;5.80;99.90
49765;DHT22;35657;51.204;-4.130;2023-03-04T08:23:34;5.90;99.90
49765;DHT22;35657;51.204;-4.130;2023-03-04T08:26:05;5.90;99.90
49765;DHT22;35657;51.204;-4.130;2023-03-04T08:28:31;5.90;99.90
49765;DHT22;35657;51.204;-4.130;2023-03-04T08:30:57;5.90;99.90
49765;DHT22;35657;51.204;-4.130;2023-03-04T08:33:23;5.80;99.90
49765;DHT22;35657;51.204;-4.130;2023-03-04T08:35:48;6.00;99.90
49765;DHT22;35657;51.204;-4.130;2023-03-04T08:38:14;6.00;99.90
49765;DHT22;35657;51.204;-4.130;2023-03-04T08:40:40;5.90;99.90
49765;DHT22;35657;51.204;-4.130;2023-03-04T08:43:05;5.90;99.90
49765;DHT22;35657;51.204;-4.130;2023-03-04T08:45:31;5.90;99.90
49765;DHT22;35657;51.204;-4.130;2023-03-04T08:47:57;5.90;99.90
49765;DHT22;35657;51.204;-4.130;2023-03-04T08:50:22;5.90;99.90
49765;DHT22;35657;51.204;-4.130;2023-03-04T08:52:48;5.90;99.90
49765;DHT22;35657;51.204;-4.130;2023-03-04T08:55:14;5.90;99.90
49765;DHT22;35657;51.204;-4.130;2023-03-04T08:57:40;6.00;99.90
49765;DHT22;35657;51.204;-4.130;2023-03-04T09:00:06;6.00;99.90
49765;DHT22;35657;51.204;-4.130;2023-03-04T09:02:32;6.00;99.90
49765;DHT22;35657;51.204;-4.130;2023-03-04T09:04:57;6.00;99.90
49765;DHT22;35657;51.204;-4.130;2023-03-04T09:07:23;6.00;99.90
49765;DHT22;35657;51.204;-4.130;2023-03-04T09:09:49;6.00;99.90
49765;DHT22;35657;51.204;-4.130;2023-03-04T09:12:14;6.00;99.90
49765;DHT22;35657;51.204;-4.130;2023-03-04T09:14:40;6.00;99.90
49765;DHT22;35657;51.204;-4.130;2023-03-04T09:17:06;6.00;99.90
49765;DHT22;35657;51.204;-4.130;2023-03-04T09:19:31;6.10;99.90
49765;DHT22;35657;51.204;-4.130;2023-03-04T09:21:57;6.00;99.90
49765;DHT22;35657;51.204;-4.130;2023-03-04T09:24:26;6.10;99.90
49765;DHT22;35657;51.204;-4.130;2023-03-04T09:26:53;6.10;99.90
49765;DHT22;35657;51.204;-4.130;2023-03-04T09:29:19;6.00;99.90
49765;DHT22;35657;51.204;-4.130;2023-03-04T09:31:45;6.00;99.90
49765;DHT22;35657;51.204;-4.130;2023-03-04T09:34:11;6.00;99.90
49765;DHT22;35657;51.204;-4.130;2023-03-04T09:36:39;6.00;99.90
49765;DHT22;35657;51.204;-4.130;2023-03-04T09:39:05;6.00;99.90
49765;DHT22;35657;51.204;-4.130;2023-03-04T09:41:43;6.00;99.90
49765;DHT22;35657;51.204;-4.130;2023-03-04T09:44:23;6.00;99.90
49765;DHT22;35657;51.204;-4.130;2023-03-04T09:46:51;6.00;99.90
49765;DHT22;35657;51.204;-4.130;2023-03-04T09:49:18;6.10;99.90
49765;DHT22;35657;51.204;-4.130;2023-03-04T10:03:26;6.20;99.90
49765;DHT22;35657;51.204;-4.130;2023-03-04T10:06:05;6.10;99.90
49765;DHT22;35657;51.204;-4.130;2023-03-04T10:11:52;6.10;99.90
49765;DHT22;35657;51.204;-4.130;2023-03-04T10:13:59;6.10;99.90
49765;DHT22;35657;51.204;-4.130;2023-03-04T10:16:37;6.10;99.90
49765;DHT22;35657;51.204;-4.130;2023-03-04T10:21:51;6.10;99.90
49765;DHT22;35657;51.204;-4.130;2023-03-04T10:24:22;6.10;99.90
49765;DHT22;35657;51.204;-4.130;2023-03-04T10:26:55;6.10;99.90
49765;DHT22;35657;51.204;-4.130;2023-03-04T10:29:22;6.10;99.90
49765;DHT22;35657;51.204;-4.130;2023-03-04T10:31:49;6.10;99.90
49765;DHT22;35657;51.204;-4.130;2023-03-04T10:34:16;6.10;99.90
49765;DHT22;35657;51.204;-4.130;2023-03-04T10:39:46;6.20;99.90
49765;DHT22;35657;51.204;-4.130;2023-03-04T10:47:23;6.30;99.90
49765;DHT22;35657;51.204;-4.130;2023-03-04T10:49:57;6.40;99.90
49765;DHT22;35657;51.204;-4.130;2023-03-04T10:52:34;6.40;99.90
49765;DHT22;35657;51.204;-4.130;2023-03-04T10:55:05;6.40;99.90
49765;DHT22;35657;51.204;-4.130;2023-03-04T10:57:41;6.40;99.90
49765;DHT22;35657;51.204;-4.130;2023-03-04T11:02:43;6.40;99.90
49765;DHT22;35657;51.204;-4.130;2023-03-04T11:05:24;6.30;99.90
49765;DHT22;35657;51.204;-4.130;2023-03-04T11:07:58;6.30;99.90
49765;DHT22;35657;51.204;-4.130;2023-03-04T11:10:25;6.30;99.90
49765;DHT22;35657;51.204;-4.130;2023-03-04T11:15:27;6.40;99.90
49765;DHT22;35657;51.204;-4.130;2023-03-04T11:18:04;6.50;99.90
49765;DHT22;35657;51.204;-4.130;2023-03-04T11:20:35;6.60;99.90
49765;DHT22;35657;51.204;-4.130;2023-03-04T11:23:17;6.60;99.90
49765;DHT22;35657;51.204;-4.130;2023-03-04T11:25:55;6.60;99.90
49765;DHT22;35657;51.204;-4.130;2023-03-04T11:28:46;6.50;99.90
49765;DHT22;35657;51.204;-4.130;2023-03-04T11:31:22;6.60;99.90
49765;DHT22;35657;51.204;-4.130;2023-03-04T11:34:02;6.60;99.90
49765;DHT22;35657;51.204;-4.130;2023-03-04T11:39:02;6.50;99.90
49765;DHT22;35657;51.204;-4.130;2023-03-04T11:41:38;6.50;99.90
49765;DHT22;35657;51.204;-4.130;2023-03-04T11:44:06;6.70;99.90
49765;DHT22;35657;51.204;-4.130;2023-03-04T11:52:42;6.70;99.90
49765;DHT22;35657;51.204;-4.130;2023-03-04T12:00:33;6.60;99.90
49765;DHT22;35657;51.204;-4.130;2023-03-04T12:03:20;6.80;99.90
49765;DHT22;35657;51.204;-4.130;2023-03-04T12:08:50;6.80;99.90
49765;DHT22;35657;51.204;-4.130;2023-03-04T12:16:49;6.80;99.90
49765;DHT22;35657;51.204;-4.130;2023-03-04T12:19:26;7.00;99.90
49765;DHT22;35657;51.204;-4.130;2023-03-04T12:29:52;7.10;99.90
49765;DHT22;35657;51.204;-4.130;2023-03-04T12:35:37;7.00;99.90
49765;DHT22;35657;51.204;-4.130;2023-03-04T12:51:54;6.80;99.90
49765;DHT22;35657;51.204;-4.130;2023-03-04T12:54:36;6.80;99.90
49765;DHT22;35657;51.204;-4.130;2023-03-04T12:57:05;6.90;99.90
49765;DHT22;35657;51.204;-4.130;2023-03-04T12:59:42;7.00;99.90
49765;DHT22;35657;51.204;-4.130;2023-03-04T13:03:13;7.10;99.90
49765;DHT22;35657;51.204;-4.130;2023-03-04T13:08:11;7.10;99.90
49765;DHT22;35657;51.204;-4.130;2023-03-04T13:10:38;7.00;99.90
49765;DHT22;35657;51.204;-4.130;2023-03-04T13:13:03;6.90;99.90
49765;DHT22;35657;51.204;-4.130;2023-03-04T13:17:57;7.10;99.90
49765;DHT22;35657;51.204;-4.130;2023-03-04T13:22:58;7.10;99.90
49765;DHT22;35657;51.204;-4.130;2023-03-04T13:30:40;7.30;99.90
49765;DHT22;35657;51.204;-4.130;2023-03-04T13:36:00;7.20;99.90
49765;DHT22;35657;51.204;-4.130;2023-03-04T13:41:15;7.30;99.90
49765;DHT22;35657;51.204;-4.130;2023-03-04T13:43:53;7.20;99.90
49765;DHT22;35657;51.204;-4.130;2023-03-04T13:51:41;7.20;99.90
49765;DHT22;35657;51.204;-4.130;2023-03-04T13:56:48;7.30;99.90
49765;DHT22;35657;51.204;-4.130;2023-03-04T13:59:40;7.30;99.90
49765;DHT22;35657;51.204;-4.130;2023-03-04T14:02:18;7.10;99.90
49765;DHT22;35657;51.204;-4.130;2023-03-04T14:07:29;7.20;99.90
49765;DHT22;35657;51.204;-4.130;2023-03-04T14:12:35;7.40;99.90
49765;DHT22;35657;51.204;-4.130;2023-03-04T14:15:11;7.30;99.90
49765;DHT22;35657;51.204;-4.130;2023-03-04T14:17:47;7.30;99.90
49765;DHT22;35657;51.204;-4.130;2023-03-04T14:20:32;7.30;99.90
49765;DHT22;35657;51.204;-4.130;2023-03-04T14:23:00;7.20;99.90
49765;DHT22;35657;51.204;-4.130;2023-03-04T14:25:31;7.20;99.90
49765;DHT22;35657;51.204;-4.130;2023-03-04T14:30:28;7.10;99.90
49765;DHT22;35657;51.204;-4.130;2023-03-04T14:32:57;7.10;99.90
49765;DHT22;35657;51.204;-4.130;2023-03-04T14:35:29;7.30;99.90
49765;DHT22;35657;51.204;-4.130;2023-03-04T14:37:59;7.30;99.90
49765;DHT22;35657;51.204;-4.130;2023-03-04T14:40:50;7.20;99.90
49765;DHT22;35657;51.204;-4.130;2023-03-04T14:43:19;7.30;99.90
49765;DHT22;35657;51.204;-4.130;2023-03-04T14:45:51;7.20;99.90
49765;DHT22;35657;51.204;-4.130;2023-03-04T14:48:30;7.50;99.90
49765;DHT22;35657;51.204;-4.130;2023-03-04T14:50:56;7.60;99.90
49765;DHT22;35657;51.204;-4.130;2023-03-04T14:53:25;7.70;99.90
49765;DHT22;35657;51.204;-4.130;2023-03-04T14:58:31;7.30;99.90
49765;DHT22;35657;51.204;-4.130;2023-03-04T15:03:29;7.10;99.90
49765;DHT22;35657;51.204;-4.130;2023-03-04T15:06:14;7.10;99.90
49765;DHT22;35657;51.204;-4.130;2023-03-04T15:08:41;7.10;99.90
49765;DHT22;35657;51.204;-4.130;2023-03-04T15:11:07;7.10;99.90
49765;DHT22;35657;51.204;-4.130;2023-03-04T15:13:40;7.10;99.90
49765;DHT22;35657;51.204;-4.130;2023-03-04T15:16:08;7.20;99.90
49765;DHT22;35657;51.204;-4.130;2023-03-04T15:18:35;7.20;99.90
49765;DHT22;35657;51.204;-4.130;2023-03-04T15:21:28;7.20;99.90
49765;DHT22;35657;51.204;-4.130;2023-03-04T15:23:54;7.30;99.90
49765;DHT22;35657;51.204;-4.130;2023-03-04T15:26:20;7.20;99.90
49765;DHT22;35657;51.204;-4.130;2023-03-04T15:28:45;7.20;99.90
49765;DHT22;35657;51.204;-4.130;2023-03-04T15:31:19;7.30;99.90
49765;DHT22;35657;51.204;-4.130;2023-03-04T15:33:46;7.40;99.90
49765;DHT22;35657;51.204;-4.130;2023-03-04T15:36:15;7.60;99.90
49765;DHT22;35657;51.204;-4.130;2023-03-04T15:38:44;7.40;99.90
49765;DHT22;35657;51.204;-4.130;2023-03-04T15:41:24;7.20;99.90
49765;DHT22;35657;51.204;-4.130;2023-03-04T15:43:52;7.10;99.90
49765;DHT22;35657;51.204;-4.130;2023-03-04T15:46:18;7.20;99.90
49765;DHT22;35657;51.204;-4.130;2023-03-04T15:48:44;7.10;99.90
49765;DHT22;35657;51.204;-4.130;2023-03-04T15:51:20;7.10;99.90
49765;DHT22;35657;51.204;-4.130;2023-03-04T15:53:49;7.30;99.90
49765;DHT22;35657;51.204;-4.130;2023-03-04T15:56:22;7.30;99.90
49765;DHT22;35657;51.204;-4.130;2023-03-04T15:58:53;7.20;99.90
49765;DHT22;35657;51.204;-4.130;2023-03-04T16:01:20;7.30;99.90
49765;DHT22;35657;51.204;-4.130;2023-03-04T16:03:46;7.60;99.90
49765;DHT22;35657;51.204;-4.130;2023-03-04T16:06:14;7.90;99.90
49765;DHT22;35657;51.204;-4.130;2023-03-04T16:08:42;7.90;99.90
49765;DHT22;35657;51.204;-4.130;2023-03-04T16:11:16;7.60;99.90
49765;DHT22;35657;51.204;-4.130;2023-03-04T16:13:43;7.40;99.90
49765;DHT22;35657;51.204;-4.130;2023-03-04T16:16:10;7.30;99.90
49765;DHT22;35657;51.204;-4.130;2023-03-04T16:18:37;7.50;99.90
49765;DHT22;35657;51.204;-4.130;2023-03-04T16:21:03;7.50;99.90
49765;DHT22;35657;51.204;-4.130;2023-03-04T16:23:31;7.30;99.90
49765;DHT22;35657;51.204;-4.130;2023-03-04T16:25:59;7.30;99.90
49765;DHT22;35657;51.204;-4.130;2023-03-04T16:28:25;7.20;99.90
49765;DHT22;35657;51.204;-4.130;2023-03-04T16:30:50;7.00;99.90
49765;DHT22;35657;51.204;-4.130;2023-03-04T16:33:16;6.90;99.90
49765;DHT22;35657;51.204;-4.130;2023-03-04T16:35:43;7.10;99.90
49765;DHT22;35657;51.204;-4.130;2023-03-04T16:38:25;7.00;99.90
49765;DHT22;35657;51.204;-4.130;2023-03-04T16:40:53;6.90;99.90
49765;DHT22;35657;51.204;-4.130;2023-03-04T16:43:20;6.80;99.90
49765;DHT22;35657;51.204;-4.130;2023-03-04T16:45:45;6.80;99.90
49765;DHT22;35657;51.204;-4.130;2023-03-04T16:48:11;6.80;99.90
49765;DHT22;35657;51.204;-4.130;2023-03-04T16:50:37;6.80;99.90
49765;DHT22;35657;51.204;-4.130;2023-03-04T16:53:04;6.80;99.90
49765;DHT22;35657;51.204;-4.130;2023-03-04T16:55:30;6.90;99.90
49765;DHT22;35657;51.204;-4.130;2023-03-04T16:57:57;6.80;99.90
49765;DHT22;35657;51.204;-4.130;2023-03-04T17:00:24;6.90;99.90
49765;DHT22;35657;51.204;-4.130;2023-03-04T17:02:55;6.80;99.90
49765;DHT22;35657;51.204;-4.130;2023-03-04T17:05:24;6.70;99.90
49765;DHT22;35657;51.204;-4.130;2023-03-04T17:07:50;6.80;99.90
49765;DHT22;35657;51.204;-4.130;2023-03-04T17:10:16;6.80;99.90
49765;DHT22;35657;51.204;-4.130;2023-03-04T17:12:42;6.90;99.90
49765;DHT22;35657;51.204;-4.130;2023-03-04T17:15:13;6.90;99.90
49765;DHT22;35657;51.204;-4.130;2023-03-04T17:17:39;6.80;99.90
49765;DHT22;35657;51.204;-4.130;2023-03-04T17:20:06;7.00;99.90
49765;DHT22;35657;51.204;-4.130;2023-03-04T17:22:33;7.10;99.90
49765;DHT22;35657;51.204;-4.130;2023-03-04T17:24:59;7.10;99.90
49765;DHT22;35657;51.204;-4.130;2023-03-04T17:27:27;7.00;99.90
49765;DHT22;35657;51.204;-4.130;2023-03-04T17:29:53;7.10;99.90
49765;DHT22;35657;51.204;-4.130;2023-03-04T17:32:19;7.20;99.90
49765;DHT22;35657;51.204;-4.130;2023-03-04T17:34:46;7.00;99.90
49765;DHT22;35657;51.204;-4.130;2023-03-04T17:37:12;7.10;99.90
49765;DHT22;35657;51.204;-4.130;2023-03-04T17:39:37;7.10;99.90
49765;DHT22;35657;51.204;-4.130;2023-03-04T17:42:04;7.00;99.90
49765;DHT22;35657;51.204;-4.130;2023-03-04T17:44:30;7.10;99.90